Time;durP1;ratioP1;P1;durP2;ratioP2;P2;SDS_P1;SDS_P2;PMS_P1;PMS_P2;Temp;Humidity;BMP_temperature;BMP_pressure;BME280_temperature;BME280_humidity;BME280_pressure;Samples;Min_cycle;Max_cycle;Signal;HPM_P1;HPM_P2
2022/07/14 00:01:19;;;;;;;1.25;1.13;;;;;;;44.69;12.28;100102.31;5032269;28;20036;-71
2022/07/14 00:03:45;;;;;;;1.58;1.10;;;;;;;44.67;12.21;100099.25;5032319;28;20056;-71
2022/07/14 00:06:10;;;;;;;1.40;0.98;;;;;;;44.85;12.20;100096.47;5032137;28;20021;-71
2022/07/14 00:08:36;;;;;;;1.33;0.88;;;;;;;44.92;12.47;100097.31;5032152;28;20029;-71
2022/07/14 00:11:02;;;;;;;2.50;1.10;;;;;;;44.92;12.24;100107.13;5031583;28;20040;-71
2022/07/14 00:13:28;;;;;;;1.20;1.00;;;;;;;44.73;12.56;100103.13;5032226;28;20060;-72
2022/07/14 00:15:54;;;;;;;3.53;1.50;;;;;;;44.46;12.44;100115.47;5032009;28;20053;-72
2022/07/14 00:18:21;;;;;;;8.65;3.03;;;;;;;44.45;12.48;100116.97;5031659;28;20061;-70
2022/07/14 00:20:47;;;;;;;1.45;1.15;;;;;;;44.59;12.15;100099.13;5031751;28;20386;-71
2022/07/14 00:23:12;;;;;;;7.22;1.15;;;;;;;44.79;12.35;100101.69;5031873;28;20142;-70
2022/07/14 00:25:37;;;;;;;1.83;1.20;;;;;;;44.85;12.02;100105.50;5031865;28;20105;-71
2022/07/14 00:28:03;;;;;;;0.98;0.88;;;;;;;44.62;12.16;100101.44;5031954;28;20071;-70
2022/07/14 00:30:28;;;;;;;1.15;1.05;;;;;;;44.51;12.20;100108.78;5033422;28;20026;-71
2022/07/14 00:32:57;;;;;;;1.05;0.90;;;;;;;44.33;12.17;100102.50;5033888;28;20500;-71
2022/07/14 00:35:22;;;;;;;1.60;1.17;;;;;;;44.55;12.59;100099.84;5033683;28;20036;-70
2022/07/14 00:37:48;;;;;;;4.43;1.40;;;;;;;44.62;12.46;100094.66;5034100;28;20021;-71
2022/07/14 00:40:13;;;;;;;1.25;1.00;;;;;;;44.47;12.63;100095.94;5033414;28;20053;-71
2022/07/14 00:42:47;;;;;;;4.43;1.52;;;;;;;44.75;12.11;100102.41;5033818;28;20035;-70
2022/07/14 00:45:16;;;;;;;1.48;1.15;;;;;;;44.47;12.30;100099.72;5033592;28;20021;-70
2022/07/14 00:47:42;;;;;;;1.13;1.00;;;;;;;44.55;12.50;100102.09;5031739;28;20025;-70
2022/07/14 00:50:10;;;;;;;1.95;1.13;;;;;;;44.69;12.29;100099.31;5031401;28;20041;-70
2022/07/14 00:52:35;;;;;;;2.00;1.00;;;;;;;44.71;12.19;100100.06;5031682;28;20379;-70
2022/07/14 00:55:01;;;;;;;1.42;1.15;;;;;;;44.29;12.98;100103.22;5032574;28;20021;-72
2022/07/14 00:57:26;;;;;;;1.70;1.10;;;;;;;44.40;12.69;100109.38;5033177;28;20538;-71
2022/07/14 00:59:52;;;;;;;1.25;0.95;;;;;;;44.47;12.50;100107.97;5033515;28;20025;-71
2022/07/14 01:02:18;;;;;;;2.28;1.30;;;;;;;44.71;12.39;100102.31;5031965;28;20481;-71
2022/07/14 01:04:45;;;;;;;1.23;1.10;;;;;;;44.58;12.22;100092.34;5033643;28;20060;-71
2022/07/14 01:07:12;;;;;;;2.35;1.38;;;;;;;44.49;12.31;100099.00;5033708;28;20025;-71
2022/07/14 01:09:38;;;;;;;1.77;0.95;;;;;;;44.44;12.66;100097.41;5033431;28;20026;-71
2022/07/14 01:12:03;;;;;;;3.38;1.20;;;;;;;44.35;12.92;100101.78;5033332;28;20025;-70
2022/07/14 01:14:29;;;;;;;2.22;1.20;;;;;;;44.43;12.73;100092.88;5032595;28;20040;-71
2022/07/14 01:16:56;;;;;;;1.38;1.00;;;;;;;44.60;12.72;100092.41;5033399;28;20036;-70
2022/07/14 01:19:22;;;;;;;1.08;1.02;;;;;;;44.13;12.98;100084.91;5032548;28;20028;-71
2022/07/14 01:21:56;;;;;;;1.08;0.80;;;;;;;44.04;12.98;100104.28;5031572;28;20055;-71
2022/07/14 01:24:22;;;;;;;1.27;1.10;;;;;;;44.12;12.76;100092.38;5033364;28;20021;-71
2022/07/14 01:26:47;;;;;;;2.85;1.17;;;;;;;44.02;12.80;100091.47;5033335;28;20477;-71
2022/07/14 01:29:13;;;;;;;1.92;0.90;;;;;;;43.72;13.34;100106.69;5033975;28;20025;-71
2022/07/14 01:31:38;;;;;;;2.03;0.85;;;;;;;43.97;12.78;100111.66;5037090;28;20030;-71
2022/07/14 01:34:03;;;;;;;3.53;1.10;;;;;;;43.92;12.92;100101.06;5037475;28;20035;-71
2022/07/14 01:36:29;;;;;;;1.80;1.38;;;;;;;43.66;13.26;100094.59;5037157;28;20481;-71
2022/07/14 01:38:54;;;;;;;1.92;1.35;;;;;;;43.62;13.07;100106.53;5037148;28;20021;-71
2022/07/14 01:41:21;;;;;;;2.17;1.20;;;;;;;43.68;13.35;100104.38;5037334;28;20491;-72
2022/07/14 01:43:47;;;;;;;2.28;1.30;;;;;;;43.91;13.00;100101.81;5037147;28;20060;-71
2022/07/14 01:46:13;;;;;;;1.48;1.02;;;;;;;43.56;13.51;100113.19;5036898;28;20029;-71
2022/07/14 01:48:38;;;;;;;1.23;1.13;;;;;;;43.25;14.08;100108.06;5037174;28;20485;-71
2022/07/14 01:51:04;;;;;;;1.25;1.10;;;;;;;43.23;13.53;100111.78;5036817;28;20113;-71
2022/07/14 01:53:29;;;;;;;2.35;1.45;;;;;;;43.28;13.59;100113.38;5036786;28;20466;-71
2022/07/14 01:55:54;;;;;;;3.00;2.15;;;;;;;43.36;13.58;100116.53;5036778;28;20044;-71
2022/07/14 01:58:20;;;;;;;1.65;1.30;;;;;;;43.50;13.79;100115.31;5036801;28;20036;-71
2022/07/14 02:01:39;;;;;;;2.17;1.25;;;;;;;43.47;13.61;100118.25;5035385;28;20103;-71
2022/07/14 02:03:31;;;;;;;1.38;1.10;;;;;;;43.48;13.92;100122.78;5036545;28;20037;-71
2022/07/14 02:05:56;;;;;;;1.08;0.90;;;;;;;43.28;13.77;100128.38;5036762;28;20117;-71
2022/07/14 02:08:21;;;;;;;1.25;1.08;;;;;;;43.23;14.00;100132.00;5036674;28;20025;-71
2022/07/14 02:13:31;;;;;;;2.55;1.42;;;;;;;42.76;14.12;100148.25;5036424;28;20044;-71
2022/07/14 02:15:56;;;;;;;2.10;1.10;;;;;;;42.79;14.45;100158.78;5036555;28;20030;-71
2022/07/14 02:18:21;;;;;;;2.03;1.27;;;;;;;42.82;14.62;100154.38;5036401;28;20065;-71
2022/07/14 02:20:47;;;;;;;1.80;1.00;;;;;;;42.62;14.37;100158.41;5036427;28;20052;-71
2022/07/14 02:23:12;;;;;;;3.97;1.90;;;;;;;42.55;14.73;100152.97;5036517;28;20429;-70
2022/07/14 02:25:38;;;;;;;1.65;1.00;;;;;;;42.66;14.09;100154.75;5036184;28;20025;-71
2022/07/14 02:28:03;;;;;;;2.75;1.27;;;;;;;42.83;13.87;100143.91;5036364;28;20383;-70
2022/07/14 02:30:29;;;;;;;1.73;1.63;;;;;;;42.74;13.96;100160.16;5036325;28;20382;-71
2022/07/14 02:32:55;;;;;;;1.48;1.27;;;;;;;42.49;14.42;100162.56;5036074;28;20471;-71
2022/07/14 02:35:20;;;;;;;1.55;1.45;;;;;;;42.55;14.11;100165.72;5036393;28;20029;-71
2022/07/14 02:37:45;;;;;;;1.63;1.52;;;;;;;42.76;14.27;100164.00;5036087;28;20033;-72
2022/07/14 02:40:13;;;;;;;1.48;1.30;;;;;;;42.70;13.83;100166.84;5035102;28;20111;-72
2022/07/14 02:42:39;;;;;;;3.55;1.40;;;;;;;42.67;14.02;100167.50;5034520;28;20258;-71
2022/07/14 02:45:05;;;;;;;4.05;2.00;;;;;;;42.62;14.54;100170.41;5034170;28;20029;-70
2022/07/14 02:47:31;;;;;;;2.28;1.60;;;;;;;42.65;13.77;100165.97;5033701;28;20037;-71
2022/07/14 02:49:56;;;;;;;1.30;1.15;;;;;;;42.67;14.03;100164.50;5033716;28;20083;-71
2022/07/14 02:52:21;;;;;;;3.50;1.25;;;;;;;42.74;13.70;100160.16;5033743;28;20030;-71
2022/07/14 02:54:47;;;;;;;1.65;1.55;;;;;;;42.60;13.91;100160.59;5033681;28;20382;-71
2022/07/14 02:57:12;;;;;;;2.78;1.63;;;;;;;42.50;14.51;100161.13;5033824;28;20029;-71
2022/07/14 02:59:41;;;;;;;2.55;1.85;;;;;;;42.41;13.97;100156.41;5034796;28;20464;-71
2022/07/14 03:02:07;;;;;;;2.63;1.95;;;;;;;42.42;14.27;100169.91;5033511;28;20025;-71
2022/07/14 03:04:33;;;;;;;6.07;1.77;;;;;;;42.46;14.51;100161.03;5033486;28;20481;-71
2022/07/14 03:06:58;;;;;;;3.33;1.90;;;;;;;42.55;13.76;100161.97;5034062;28;20025;-72
2022/07/14 03:09:26;;;;;;;2.35;1.80;;;;;;;42.63;14.28;100168.91;5033506;28;20462;-70
2022/07/14 03:11:51;;;;;;;2.05;1.85;;;;;;;42.78;13.72;100164.03;5033389;28;20492;-71
2022/07/14 03:14:17;;;;;;;3.78;1.60;;;;;;;42.86;13.71;100155.22;5033449;28;20037;-70
2022/07/14 03:16:42;;;;;;;1.73;1.58;;;;;;;42.90;13.82;100157.53;5034826;28;20120;-70
2022/07/14 03:19:07;;;;;;;3.63;1.50;;;;;;;42.98;13.76;100167.47;5035239;28;20108;-71
2022/07/14 03:21:33;;;;;;;1.58;1.48;;;;;;;42.93;13.64;100183.84;5035147;28;20421;-71
2022/07/14 03:23:58;;;;;;;1.52;1.20;;;;;;;42.90;13.96;100188.28;5035574;28;20060;-70
2022/07/14 03:26:24;;;;;;;1.40;1.30;;;;;;;42.98;14.05;100194.47;5035151;28;20037;-71
2022/07/14 03:28:49;;;;;;;2.13;1.60;;;;;;;43.12;13.55;100200.06;5035216;28;20478;-71
2022/07/14 03:31:15;;;;;;;1.90;1.52;;;;;;;43.17;13.95;100209.91;5035152;28;20053;-71
2022/07/14 03:33:42;;;;;;;1.33;1.23;;;;;;;43.27;14.09;100201.13;5034774;28;20513;-72
2022/07/14 03:36:07;;;;;;;6.45;1.83;;;;;;;43.28;13.80;100196.63;5034971;28;20029;-71
2022/07/14 03:38:34;;;;;;;4.50;1.50;;;;;;;43.24;14.17;100193.53;5034933;28;20113;-71
2022/07/14 03:41:03;;;;;;;2.70;1.88;;;;;;;43.29;14.23;100204.16;5034520;28;20057;-71
2022/07/14 03:43:37;;;;;;;2.10;1.45;;;;;;;43.41;13.53;100210.41;5035169;28;20060;-72
2022/07/14 03:46:03;;;;;;;2.92;1.80;;;;;;;43.50;13.59;100224.13;5035096;28;20044;-71
2022/07/14 03:48:30;;;;;;;2.33;1.75;;;;;;;43.48;13.71;100227.84;5033684;28;20041;-71
2022/07/14 03:50:55;;;;;;;3.95;1.70;;;;;;;43.66;13.58;100241.72;5033630;28;20065;-71
2022/07/14 03:53:21;;;;;;;5.35;2.30;;;;;;;43.81;13.55;100241.28;5034530;28;20459;-71
2022/07/14 03:55:47;;;;;;;6.35;1.77;;;;;;;43.79;13.58;100252.47;5035637;28;20048;-71
2022/07/14 03:58:13;;;;;;;2.83;2.38;;;;;;;43.36;13.79;100260.59;5035303;28;20120;-71
2022/07/14 04:00:39;;;;;;;5.38;1.95;;;;;;;43.48;13.80;100260.09;5034249;28;20557;-71
2022/07/14 04:03:05;;;;;;;5.78;1.90;;;;;;;43.43;14.41;100271.22;5034768;28;20025;-71
2022/07/14 04:05:33;;;;;;;2.60;2.00;;;;;;;43.18;14.47;100271.41;5034986;28;20120;-71
2022/07/14 04:07:58;;;;;;;3.53;2.22;;;;;;;43.30;14.33;100280.69;5034598;28;20029;-71
2022/07/14 04:10:25;;;;;;;2.17;1.77;;;;;;;43.17;14.45;100282.66;5034459;28;20045;-70
2022/07/14 04:12:52;;;;;;;1.95;1.60;;;;;;;43.21;14.64;100279.75;5034246;28;20021;-72
2022/07/14 04:15:18;;;;;;;2.75;1.70;;;;;;;43.38;14.03;100290.63;5034171;28;20033;-71
2022/07/14 04:17:46;;;;;;;4.00;2.28;;;;;;;43.47;13.95;100273.56;5034467;28;20114;-71
2022/07/14 04:20:12;;;;;;;3.38;2.15;;;;;;;43.76;13.85;100278.72;5034200;28;20025;-71
2022/07/14 04:22:38;;;;;;;4.07;1.77;;;;;;;43.94;13.63;100263.31;5032738;28;20079;-71
2022/07/14 04:25:07;;;;;;;3.90;2.20;;;;;;;44.16;13.92;100281.75;5034536;28;20119;-72
2022/07/14 04:27:34;;;;;;;2.15;1.95;;;;;;;44.23;13.65;100279.63;5032871;28;20509;-71
2022/07/14 04:29:59;;;;;;;2.60;1.73;;;;;;;44.59;13.21;100270.50;5033937;28;20498;-71
2022/07/14 04:32:27;;;;;;;3.55;2.22;;;;;;;44.73;13.35;100274.53;5015634;28;20029;-71
2022/07/14 04:34:53;;;;;;;5.22;1.92;;;;;;;45.14;12.84;100263.91;5032545;28;20061;-71
2022/07/14 04:37:22;;;;;;;2.03;1.73;;;;;;;45.20;13.13;100263.22;5048503;28;20056;-72
2022/07/14 04:39:48;;;;;;;3.45;2.03;;;;;;;45.30;12.91;100272.38;5033542;28;20049;-71
2022/07/14 04:42:15;;;;;;;2.22;1.88;;;;;;;45.58;12.76;100275.03;5033708;28;20032;-71
2022/07/14 04:44:41;;;;;;;4.93;1.85;;;;;;;46.01;12.28;100267.28;5034085;28;20033;-71
2022/07/14 04:47:09;;;;;;;4.13;2.28;;;;;;;46.18;12.60;100265.97;5034357;28;20479;-71
2022/07/14 04:52:20;;;;;;;4.45;2.28;;;;;;;46.95;12.12;100277.97;5028366;28;20091;-72
2022/07/14 04:54:47;;;;;;;2.28;1.73;;;;;;;46.98;11.83;100271.19;5033917;28;20033;-72
2022/07/14 04:57:14;;;;;;;5.15;2.20;;;;;;;47.34;11.23;100261.59;5033817;28;20021;-73
2022/07/14 04:59:41;;;;;;;3.08;1.77;;;;;;;47.26;11.63;100272.88;5033468;28;20052;-73
2022/07/14 05:02:06;;;;;;;4.25;2.28;;;;;;;47.33;12.27;100272.16;5033280;28;20367;-73
2022/07/14 05:04:34;;;;;;;10.07;2.25;;;;;;;47.50;11.80;100264.69;5032852;28;20033;-73
2022/07/14 05:07:00;;;;;;;3.20;2.30;;;;;;;47.62;11.43;100273.81;5032148;28;20029;-73
2022/07/14 05:09:32;;;;;;;4.38;2.53;;;;;;;47.46;11.34;100276.78;5034613;28;20113;-73
2022/07/14 05:12:00;;;;;;;3.78;2.58;;;;;;;47.82;11.36;100278.41;5033399;28;20033;-70
2022/07/14 05:14:26;;;;;;;5.63;2.42;;;;;;;48.44;11.28;100287.66;5032710;28;20033;-70
2022/07/14 05:16:53;;;;;;;9.27;2.33;;;;;;;49.13;10.41;100277.81;5032348;28;20067;-70
2022/07/14 05:19:19;;;;;;;3.10;1.80;;;;;;;49.12;10.28;100283.09;5033352;28;20112;-72
2022/07/14 05:21:46;;;;;;;6.15;2.28;;;;;;;49.31;10.70;100287.59;5033338;28;20072;-70
2022/07/14 05:24:19;;;;;;;2.40;2.20;;;;;;;48.73;10.50;100287.69;5033456;28;20087;-70
2022/07/14 05:26:45;;;;;;;4.65;2.00;;;;;;;49.00;10.70;100280.06;5027200;28;20477;-69
2022/07/14 05:29:12;;;;;;;3.55;2.08;;;;;;;49.18;10.46;100282.34;5027793;28;20104;-71
2022/07/14 05:31:38;;;;;;;3.33;1.65;;;;;;;49.33;10.34;100283.81;5033511;28;20025;-70
2022/07/14 05:34:03;;;;;;;3.42;2.40;;;;;;;49.44;10.67;100288.31;5031772;28;20061;-68
2022/07/14 05:36:29;;;;;;;5.03;2.38;;;;;;;49.73;10.07;100295.03;5033373;28;20052;-69
2022/07/14 05:38:54;;;;;;;3.58;2.67;;;;;;;49.93;10.27;100297.22;5032910;28;20514;-69
2022/07/14 05:41:21;;;;;;;3.22;2.10;;;;;;;49.92;10.21;100304.81;5033050;28;20449;-69
2022/07/14 05:43:47;;;;;;;8.30;3.15;;;;;;;50.55;9.72;100302.91;5032112;28;20349;-69
2022/07/14 05:46:13;;;;;;;3.88;2.58;;;;;;;51.24;9.82;100302.25;5030287;28;20033;-70
2022/07/14 05:48:39;;;;;;;9.40;2.53;;;;;;;50.73;9.65;100305.00;5030633;28;20025;-70
2022/07/14 05:51:07;;;;;;;3.78;2.03;;;;;;;50.12;9.90;100310.78;5030651;28;20028;-69
2022/07/14 05:53:33;;;;;;;2.85;2.00;;;;;;;50.40;9.97;100303.75;5030683;28;20017;-71
2022/07/14 05:55:59;;;;;;;2.50;2.30;;;;;;;50.80;10.02;100297.38;5030682;28;20022;-69
2022/07/14 05:58:25;;;;;;;4.82;2.05;;;;;;;51.18;9.47;100302.31;5030442;28;20459;-70
2022/07/14 06:00:50;;;;;;;3.92;2.75;;;;;;;51.25;9.21;100303.78;5031454;28;20049;-69
2022/07/14 06:03:16;;;;;;;4.93;2.30;;;;;;;51.74;9.58;100291.78;5032605;28;20025;-70
2022/07/14 06:05:41;;;;;;;3.88;2.47;;;;;;;51.82;9.55;100287.91;5030709;28;20032;-69
2022/07/14 06:08:07;;;;;;;4.75;2.13;;;;;;;52.57;8.56;100299.72;5030535;28;20374;-69
2022/07/14 06:10:33;;;;;;;3.78;2.22;;;;;;;54.69;8.08;100281.53;5030470;28;20188;-69
2022/07/14 06:12:58;;;;;;;4.40;1.80;;;;;;;56.27;7.10;100271.53;5030311;28;20200;-69
2022/07/14 06:15:23;;;;;;;5.50;2.30;;;;;;;57.92;6.28;100275.50;5030301;28;20025;-69
2022/07/14 06:17:49;;;;;;;3.67;2.50;;;;;;;60.03;4.20;100260.66;5033336;28;20033;-69
2022/07/14 06:20:14;;;;;;;2.80;1.90;;;;;;;60.81;5.18;100252.03;5035672;28;20379;-69
2022/07/14 06:22:42;;;;;;;4.38;2.08;;;;;;;59.51;5.52;100255.47;5035843;28;20035;-70
2022/07/14 06:25:09;;;;;;;2.83;2.38;;;;;;;59.30;4.94;100258.03;5036484;28;20025;-70
2022/07/14 06:27:35;;;;;;;3.97;2.08;;;;;;;59.83;5.36;100250.09;5051093;28;20045;-70
2022/07/14 06:30:07;;;;;;;7.70;2.20;;;;;;;60.51;5.28;100247.47;5036205;28;20036;-70
2022/07/14 06:32:33;;;;;;;6.60;2.72;;;;;;;59.68;4.87;100243.13;5035964;28;20025;-71
2022/07/14 06:34:58;;;;;;;4.20;2.13;;;;;;;58.37;5.27;100252.94;5034958;28;20048;-72
2022/07/14 06:37:25;;;;;;;3.50;2.08;;;;;;;58.07;5.27;100254.94;5034658;28;20540;-72
2022/07/14 06:39:51;;;;;;;3.25;1.63;;;;;;;59.51;4.80;100248.59;5034305;28;20048;-71
2022/07/14 06:42:17;;;;;;;3.75;1.55;;;;;;;60.17;5.28;100243.81;5034639;28;20093;-71
2022/07/14 06:44:44;;;;;;;3.20;1.77;;;;;;;62.28;3.69;100242.19;5035981;28;20104;-70
2022/07/14 06:47:12;;;;;;;4.15;1.92;;;;;;;63.95;3.22;100240.09;5035951;28;20021;-70
2022/07/14 06:49:41;;;;;;;5.85;1.65;;;;;;;64.81;2.78;100222.53;5034685;28;20025;-69
2022/07/14 06:52:07;;;;;;;9.07;1.90;;;;;;;65.11;2.68;100222.69;5035102;28;20022;-70
2022/07/14 06:54:33;;;;;;;4.70;1.75;;;;;;;64.80;2.36;100224.88;5035438;28;20040;-69
2022/07/14 06:56:59;;;;;;;2.05;1.30;;;;;;;64.78;2.24;100218.84;5034287;28;20487;-70
2022/07/14 06:59:24;;;;;;;4.45;1.70;;;;;;;64.27;2.77;100230.19;5017618;28;20120;-69
2022/07/14 07:01:52;;;;;;;3.58;2.08;;;;;;;62.68;4.13;100217.38;5035528;28;20177;-69
2022/07/14 07:04:18;;;;;;;7.50;2.17;;;;;;;62.59;3.41;100216.38;5035438;28;20108;-71
2022/07/14 07:06:45;;;;;;;4.30;1.48;;;;;;;62.48;3.69;100213.16;5035135;28;20082;-69
2022/07/14 07:09:20;;;;;;;2.50;1.77;;;;;;;62.13;3.52;100214.50;5034554;28;20021;-69
2022/07/14 07:11:51;;;;;;;10.48;2.80;;;;;;;61.65;4.53;100212.66;5032382;28;20045;-70
2022/07/14 07:14:18;;;;;;;3.70;1.67;;;;;;;62.65;2.75;100207.50;5014266;28;20025;-69
2022/07/14 07:16:50;;;;;;;10.00;2.25;;;;;;;64.65;3.32;100202.69;5033273;28;20029;-69
2022/07/14 07:19:21;;;;;;;5.35;1.92;;;;;;;66.61;2.79;100202.72;5033904;28;20029;-69
2022/07/14 07:21:48;;;;;;;2.40;1.80;;;;;;;67.49;2.38;100197.06;5033862;28;20033;-69
2022/07/14 07:24:14;;;;;;;3.97;2.55;;;;;;;67.94;1.83;100193.28;5034950;28;20021;-69
2022/07/14 07:26:41;;;;;;;7.93;2.03;;;;;;;67.08;1.55;100190.31;5033830;28;20029;-69
2022/07/14 07:29:08;;;;;;;4.22;1.80;;;;;;;66.02;2.11;100191.75;5033575;28;20120;-69
2022/07/14 07:31:35;;;;;;;3.83;1.95;;;;;;;64.01;2.97;100186.25;5033996;28;20077;-69
2022/07/14 07:34:04;;;;;;;2.05;1.88;;;;;;;63.76;3.38;100190.25;5017167;28;20033;-70
2022/07/14 07:36:30;;;;;;;10.32;2.47;;;;;;;64.84;2.93;100171.16;5034686;28;20483;-69
2022/07/14 07:38:56;;;;;;;4.90;1.70;;;;;;;66.66;2.29;100187.56;5034457;28;20025;-69
2022/07/14 07:41:24;;;;;;;36.45;4.57;;;;;;;68.41;0.85;100171.25;5033467;28;20107;-70
2022/07/14 07:43:49;;;;;;;3.10;2.00;;;;;;;69.96;0.51;100167.94;5034722;28;20021;-69
2022/07/14 07:46:15;;;;;;;6.40;1.95;;;;;;;68.14;2.01;100169.72;5034549;28;20382;-70
2022/07/14 07:48:42;;;;;;;2.92;1.98;;;;;;;66.38;2.52;100178.09;5034239;28;20029;-70
2022/07/14 07:51:08;;;;;;;7.47;2.17;;;;;;;67.29;2.03;100177.69;5034895;28;20018;-70
2022/07/14 07:53:35;;;;;;;5.53;2.47;;;;;;;66.30;1.45;100173.25;5034673;28;20038;-70
2022/07/14 07:56:00;;;;;;;2.15;1.92;;;;;;;66.69;1.96;100179.53;5034296;28;20083;-69
2022/07/14 07:58:29;;;;;;;2.42;2.20;;;;;;;65.39;2.55;100180.25;5032990;28;20038;-70
2022/07/14 08:00:55;;;;;;;3.72;1.73;;;;;;;64.06;3.25;100187.47;5034380;28;20021;-69
2022/07/14 08:03:22;;;;;;;1.90;1.60;;;;;;;64.43;3.38;100195.72;5032750;28;20025;-70
2022/07/14 08:05:49;;;;;;;2.30;1.90;;;;;;;62.83;2.71;100190.13;5034145;28;20394;-69
2022/07/14 08:08:15;;;;;;;6.00;2.40;;;;;;;61.90;4.17;100190.38;5033298;28;20025;-69
2022/07/14 08:10:42;;;;;;;6.47;2.15;;;;;;;63.29;3.61;100195.69;5032901;28;20041;-71
2022/07/14 08:13:08;;;;;;;2.38;2.17;;;;;;;65.54;2.06;100180.69;5032877;28;20029;-69
2022/07/14 08:15:36;;;;;;;6.68;1.90;;;;;;;66.01;2.59;100183.34;5032864;28;20037;-70
2022/07/14 08:18:02;;;;;;;4.13;1.95;;;;;;;66.95;1.45;100186.75;5033478;28;20030;-70
2022/07/14 08:20:32;;;;;;;2.50;2.30;;;;;;;67.27;2.07;100174.72;5016291;28;20037;-69
2022/07/14 08:22:58;;;;;;;4.32;2.15;;;;;;;67.62;2.03;100169.47;5033912;28;20030;-69
2022/07/14 08:25:25;;;;;;;2.47;2.20;;;;;;;67.74;2.01;100170.81;5034212;28;20017;-70
2022/07/14 08:27:51;;;;;;;3.28;1.45;;;;;;;67.75;1.63;100173.03;5033767;28;20033;-70
2022/07/14 08:30:17;;;;;;;3.13;2.00;;;;;;;68.42;1.34;100169.59;5032578;28;20032;-70
2022/07/14 08:32:51;;;;;;;2.05;1.95;;;;;;;67.94;1.00;100165.97;5033638;28;20029;-69
2022/07/14 08:35:19;;;;;;;4.13;2.33;;;;;;;66.56;1.45;100164.97;5033831;28;20026;-68
2022/07/14 08:37:44;;;;;;;2.10;1.90;;;;;;;64.72;2.72;100159.59;5016201;28;20386;-69
2022/07/14 08:40:14;;;;;;;9.07;3.53;;;;;;;64.34;2.91;100159.97;5031440;28;20423;-69
2022/07/14 08:43:01;;;;;;;4.03;2.17;;;;;;;64.63;2.95;100171.84;5016078;28;20034;-70
2022/07/14 08:45:40;;;;;;;23.10;4.43;;;;;;;64.02;2.68;100159.88;5033328;28;20045;-69
2022/07/14 08:48:09;;;;;;;3.38;2.60;;;;;;;63.66;3.39;100166.16;5033905;28;20025;-68
2022/07/14 08:50:35;;;;;;;6.55;2.40;;;;;;;63.14;3.97;100167.31;5032094;28;20557;-70
2022/07/14 08:53:08;;;;;;;2.72;1.92;;;;;;;61.67;3.61;100166.25;5015452;28;20368;-69
2022/07/14 08:55:35;;;;;;;2.38;2.17;;;;;;;61.30;4.31;100166.84;5033312;28;20025;-68
2022/07/14 08:58:01;;;;;;;6.03;2.78;;;;;;;60.29;4.79;100150.78;5033573;28;20402;-69
2022/07/14 09:00:28;;;;;;;7.25;1.90;;;;;;;59.80;5.22;100159.47;5033767;28;20059;-69
2022/07/14 09:02:55;;;;;;;6.47;2.10;;;;;;;59.89;4.83;100150.56;5048724;28;20068;-69
2022/07/14 09:05:20;;;;;;;35.47;6.63;;;;;;;59.40;4.93;100155.28;5033273;28;20047;-68
2022/07/14 09:07:53;;;;;;;2.85;1.67;;;;;;;59.60;4.82;100151.22;5032087;28;20449;-68
2022/07/14 09:10:24;;;;;;;3.47;2.30;;;;;;;59.25;5.42;100151.41;5031960;28;20065;-69
2022/07/14 09:12:50;;;;;;;;;;;;;;;59.01;5.33;100144.81;5032543;28;20466;-69
2022/07/14 09:18:12;;;;;;;;;;;;;;;58.46;4.97;100146.56;5033049;28;20441;-68
2022/07/14 09:20:38;;;;;;;6.47;4.20;;;;;;;58.45;5.69;100142.00;5033122;28;19909;-69
2022/07/14 09:23:04;;;;;;;2.75;2.28;;;;;;;57.94;6.15;100143.41;5031889;28;20036;-71
2022/07/14 09:25:34;;;;;;;2.63;2.00;;;;;;;57.34;6.34;100149.72;5032006;28;20079;-69
2022/07/14 09:28:15;;;;;;;6.88;2.53;;;;;;;57.45;5.83;100148.50;5031687;28;20144;-67
2022/07/14 09:30:41;;;;;;;2.45;2.25;;;;;;;57.30;5.96;100156.75;5031613;28;20028;-69
2022/07/14 09:33:08;;;;;;;2.40;2.20;;;;;;;56.91;6.21;100148.31;5033161;28;20026;-69
2022/07/14 09:35:36;;;;;;;2.15;1.92;;;;;;;56.22;6.76;100156.13;5015221;28;20033;-70
2022/07/14 09:38:25;;;;;;;3.38;2.00;;;;;;;56.12;6.50;100147.31;5033264;28;20037;-68
2022/07/14 09:40:51;;;;;;;3.05;2.45;;;;;;;55.66;6.39;100150.34;5032632;28;20042;-69
2022/07/14 09:43:20;;;;;;;4.13;2.42;;;;;;;55.18;6.76;100145.72;5032979;28;20038;-68
2022/07/14 09:45:50;;;;;;;4.35;2.60;;;;;;;55.35;7.72;100146.75;5033115;28;20052;-70
2022/07/14 09:48:18;;;;;;;12.27;3.63;;;;;;;55.32;7.69;100151.44;5031610;28;20032;-69
2022/07/14 09:50:57;;;;;;;3.13;2.63;;;;;;;55.22;6.84;100149.41;5034105;28;20475;-70
2022/07/14 09:53:27;;;;;;;4.18;2.30;;;;;;;55.54;7.63;100147.66;5035144;28;20441;-69
2022/07/14 09:55:58;;;;;;;6.13;3.00;;;;;;;56.08;6.94;100135.97;5036669;28;20026;-69
2022/07/14 09:58:31;;;;;;;3.92;2.33;;;;;;;56.12;6.56;100144.25;5036645;28;20021;-69
2022/07/14 10:01:08;;;;;;;4.63;2.65;;;;;;;55.95;7.36;100147.13;5019581;28;20028;-69
2022/07/14 10:03:37;;;;;;;4.28;2.85;;;;;;;55.73;7.24;100135.59;5036460;28;20021;-69
2022/07/14 10:06:05;;;;;;;3.03;2.47;;;;;;;55.50;7.36;100126.41;5035096;28;20033;-69
2022/07/14 10:08:34;;;;;;;3.88;2.75;;;;;;;55.40;7.05;100133.59;5035818;28;20029;-70
2022/07/14 10:11:03;;;;;;;5.45;3.00;;;;;;;55.50;7.23;100151.63;5036456;28;20033;-70
2022/07/14 10:13:38;;;;;;;3.58;2.10;;;;;;;55.35;7.13;100140.66;5035213;28;20517;-69
2022/07/14 10:16:04;;;;;;;8.65;3.08;;;;;;;55.04;7.54;100143.88;5034963;28;20017;-69
2022/07/14 10:18:31;;;;;;;7.65;2.67;;;;;;;54.47;7.75;100138.63;5034988;28;20029;-69
2022/07/14 10:20:59;;;;;;;5.05;2.63;;;;;;;54.61;7.13;100145.06;5034634;28;20036;-69
2022/07/14 10:23:27;;;;;;;4.20;2.55;;;;;;;55.00;7.37;100134.81;5035852;28;20496;-69
2022/07/14 10:25:57;;;;;;;5.00;2.83;;;;;;;55.40;7.56;100138.97;5034788;28;20025;-69
2022/07/14 10:28:24;;;;;;;5.20;3.35;;;;;;;55.29;7.27;100131.63;5034758;28;20087;-69
2022/07/14 10:30:56;;;;;;;3.15;2.58;;;;;;;55.28;7.32;100136.25;5034640;28;20144;-68
2022/07/14 10:33:33;;;;;;;5.60;3.08;;;;;;;55.45;6.87;100131.16;5035711;28;20431;-69
2022/07/14 10:36:18;;;;;;;3.28;2.65;;;;;;;55.35;7.27;100132.22;5036000;28;20048;-70
2022/07/14 10:39:03;;;;;;;17.92;3.53;;;;;;;54.99;7.75;100131.03;5034479;28;20108;-69
2022/07/14 10:41:35;;;;;;;3.20;2.90;;;;;;;54.59;8.23;100129.09;5035720;28;20045;-69
2022/07/14 10:44:05;;;;;;;2.88;2.67;;;;;;;54.71;8.09;100125.72;5035476;28;20120;-69
2022/07/14 10:46:42;;;;;;;3.53;3.05;;;;;;;55.17;7.85;100120.53;5035743;28;20416;-69
2022/07/14 10:49:09;;;;;;;4.95;3.05;;;;;;;55.32;7.32;100124.66;5035741;28;20029;-69
2022/07/14 10:51:44;;;;;;;6.28;3.72;;;;;;;55.29;7.87;100125.53;5001644;28;20120;-69
2022/07/14 10:54:29;;;;;;;4.00;2.58;;;;;;;55.31;7.45;100119.38;5035482;28;20072;-70
2022/07/14 10:57:14;;;;;;;6.40;2.72;;;;;;;55.19;7.31;100120.47;5034318;28;20037;-70
2022/07/14 10:59:41;;;;;;;3.05;2.85;;;;;;;54.94;8.09;100117.41;5035794;28;20100;-69
2022/07/14 11:02:23;;;;;;;4.80;3.20;;;;;;;55.59;7.63;100123.81;5033516;28;20021;-69
2022/07/14 11:08:07;;;;;;;6.38;3.90;;;;;;;54.94;7.32;100113.59;5036023;28;20065;-69
2022/07/14 11:10:36;;;;;;;4.88;3.13;;;;;;;54.66;7.61;100109.06;5035180;28;20081;-70
2022/07/14 11:13:09;;;;;;;5.15;3.30;;;;;;;54.85;7.94;100109.28;5035225;28;20116;-70
2022/07/14 11:15:44;;;;;;;5.07;4.57;;;;;;;54.13;8.14;100109.75;5035392;28;20517;-68
2022/07/14 11:18:21;;;;;;;9.77;4.22;;;;;;;54.39;8.31;100109.06;5050707;28;20037;-69
2022/07/14 11:20:50;;;;;;;5.05;3.22;;;;;;;54.19;8.30;100097.38;5035215;28;20546;-68
2022/07/14 11:23:21;;;;;;;3.38;3.08;;;;;;;54.29;8.31;100103.19;5050378;28;20038;-70
2022/07/14 11:25:46;;;;;;;3.85;3.15;;;;;;;54.25;7.98;100094.91;5035045;28;20034;-69
2022/07/14 11:28:33;;;;;;;4.78;3.58;;;;;;;54.38;7.61;100097.66;5033689;28;20390;-68
2022/07/14 11:31:12;;;;;;;4.57;2.97;;;;;;;54.61;7.78;100093.16;5035142;28;20080;-70
2022/07/14 11:36:32;;;;;;;7.63;3.78;;;;;;;54.10;8.55;100090.75;5034754;28;20051;-68
2022/07/14 11:39:16;;;;;;;7.72;3.10;;;;;;;53.88;8.05;100090.56;5033143;28;20122;-75
2022/07/14 11:42:01;;;;;;;8.00;3.30;;;;;;;53.31;8.18;100086.56;5035020;28;20033;-70
2022/07/14 11:44:39;;;;;;;8.85;4.20;;;;;;;53.48;8.96;100083.91;5035173;28;20549;-73
2022/07/14 11:47:08;;;;;;;10.35;4.93;;;;;;;53.85;7.88;100087.56;5034765;28;20045;-73